Time;durP1;ratioP1;P1;durP2;ratioP2;P2;SDS_P1;SDS_P2;PMS_P1;PMS_P2;Temp;Humidity;BMP_temperature;BMP_pressure;BME280_temperature;BME280_humidity;BME280_pressure;Samples;Min_cycle;Max_cycle;Signal;HPM_P1;HPM_P2
2023/10/04 00:01:38;;;;;;;0.20;0.20;;;13.20;99.90;;;;;;5012032;28;20053;-70
2023/10/04 00:04:05;;;;;;;0.10;0.10;;;13.20;99.90;;;;;;5027239;28;20081;-70
2023/10/04 00:06:31;;;;;;;0.20;0.20;;;13.10;99.90;;;;;;5011424;28;20049;-70
2023/10/04 00:08:58;;;;;;;0.15;0.15;;;13.20;99.90;;;;;;5011393;28;20043;-70
2023/10/04 00:11:24;;;;;;;0.10;0.10;;;13.20;99.90;;;;;;5011291;28;20088;-70
2023/10/04 00:13:51;;;;;;;0.10;0.10;;;13.20;99.90;;;;;;5010600;28;20505;-70
2023/10/04 00:16:17;;;;;;;0.10;0.10;;;13.10;99.90;;;;;;5010708;28;20049;-70
2023/10/04 00:18:43;;;;;;;0.10;0.10;;;13.10;99.90;;;;;;5028050;28;20615;-70
2023/10/04 00:21:12;;;;;;;0.10;0.10;;;13.10;99.90;;;;;;5010055;28;20052;-70
2023/10/04 00:23:38;;;;;;;0.13;0.13;;;13.10;99.90;;;;;;5009114;28;20037;-70
2023/10/04 00:26:07;;;;;;;0.20;0.20;;;13.10;99.90;;;;;;5010992;28;20136;-70
2023/10/04 00:28:33;;;;;;;0.10;0.10;;;13.10;99.90;;;;;;5010054;28;20041;-70
2023/10/04 00:30:58;;;;;;;0.10;0.10;;;13.00;99.90;;;;;;5010834;28;20449;-70
2023/10/04 00:33:24;;;;;;;0.20;0.20;;;13.10;99.90;;;;;;5015236;28;20077;-70
2023/10/04 00:35:51;;;;;;;0.10;0.10;;;13.00;99.90;;;;;;5011369;28;20472;-70
2023/10/04 00:38:19;;;;;;;0.10;0.10;;;13.00;99.90;;;;;;5011326;28;20496;-70
2023/10/04 00:40:47;;;;;;;0.10;0.10;;;13.00;99.90;;;;;;5009394;28;20049;-70
2023/10/04 00:43:19;;;;;;;0.17;0.17;;;13.00;99.90;;;;;;5029967;28;20132;-70
2023/10/04 00:45:47;;;;;;;0.20;0.20;;;13.00;99.90;;;;;;5017066;28;20388;-70
2023/10/04 00:48:22;;;;;;;0.20;0.20;;;13.00;99.90;;;;;;5027614;28;20048;-70
2023/10/04 00:50:49;;;;;;;0.10;0.10;;;13.00;99.90;;;;;;4999737;28;20065;-70
2023/10/04 00:53:22;;;;;;;0.20;0.20;;;13.00;99.90;;;;;;5008484;28;20053;-70
2023/10/04 00:55:49;;;;;;;0.10;0.10;;;13.00;99.90;;;;;;5028172;28;20041;-70
2023/10/04 00:58:17;;;;;;;0.10;0.10;;;13.00;99.90;;;;;;5029148;28;20049;-70
2023/10/04 01:00:45;;;;;;;0.20;0.20;;;12.90;99.90;;;;;;5009571;28;20044;-70
2023/10/04 01:03:11;;;;;;;0.10;0.10;;;12.90;99.90;;;;;;5011185;28;20556;-70
2023/10/04 01:05:46;;;;;;;0.10;0.10;;;12.90;99.90;;;;;;5009800;28;20051;-70
2023/10/04 01:08:18;;;;;;;0.10;0.10;;;12.90;99.90;;;;;;5009476;28;20091;-70
2023/10/04 01:10:46;;;;;;;0.20;0.20;;;12.90;99.90;;;;;;5028958;28;20041;-70
2023/10/04 01:13:11;;;;;;;0.20;0.20;;;12.90;99.90;;;;;;5009065;28;20049;-70
2023/10/04 01:15:39;;;;;;;0.10;0.10;;;12.90;99.90;;;;;;4991168;28;20129;-70
2023/10/04 01:18:10;;;;;;;0.15;0.15;;;12.90;99.90;;;;;;5009805;28;20056;-71
2023/10/04 01:20:38;;;;;;;0.10;0.10;;;12.80;99.90;;;;;;5007147;28;20053;-70
2023/10/04 01:23:06;;;;;;;0.10;0.10;;;12.90;99.90;;;;;;5007300;28;20053;-70
2023/10/04 01:25:36;;;;;;;0.20;0.20;;;12.80;99.90;;;;;;5013924;28;20068;-71
2023/10/04 01:28:13;;;;;;;0.20;0.20;;;12.80;99.90;;;;;;5008973;28;20711;-70
2023/10/04 01:30:40;;;;;;;0.20;0.20;;;12.80;99.90;;;;;;5023533;28;20119;-70
2023/10/04 01:33:10;;;;;;;0.10;0.10;;;12.80;99.90;;;;;;5003178;28;20046;-70
2023/10/04 01:35:37;;;;;;;0.20;0.20;;;12.80;99.90;;;;;;5014074;28;20124;-70
2023/10/04 01:38:09;;;;;;;0.20;0.20;;;12.70;99.90;;;;;;5011089;28;20060;-70
2023/10/04 01:40:39;;;;;;;0.20;0.20;;;12.70;99.90;;;;;;5013142;28;20048;-70
2023/10/04 01:43:17;;;;;;;0.20;0.20;;;12.70;99.90;;;;;;5013437;28;20127;-71
2023/10/04 01:45:55;;;;;;;0.20;0.20;;;12.70;99.90;;;;;;5013662;28;20489;-71
2023/10/04 01:48:22;;;;;;;0.10;0.10;;;12.70;99.90;;;;;;5006333;28;20045;-70
2023/10/04 01:50:48;;;;;;;0.20;0.20;;;12.70;99.90;;;;;;5028824;28;20516;-70
2023/10/04 01:53:14;;;;;;;0.10;0.10;;;12.70;99.90;;;;;;5009499;28;20128;-70
2023/10/04 01:55:40;;;;;;;0.10;0.10;;;12.70;99.90;;;;;;5032032;28;20438;-70
2023/10/04 01:58:08;;;;;;;0.20;0.20;;;12.70;99.90;;;;;;5009832;28;20120;-70
2023/10/04 02:00:34;;;;;;;0.17;0.17;;;12.70;99.90;;;;;;5012138;28;20065;-70
2023/10/04 02:03:01;;;;;;;0.10;0.10;;;12.80;99.90;;;;;;5009504;28;20045;-70
2023/10/04 02:05:37;;;;;;;0.10;0.10;;;12.70;99.90;;;;;;5013926;28;20045;-71
2023/10/04 02:08:08;;;;;;;0.10;0.10;;;12.70;99.90;;;;;;5006677;28;20053;-70
2023/10/04 02:10:34;;;;;;;0.10;0.10;;;12.60;99.90;;;;;;5011864;28;20057;-70
2023/10/04 02:13:00;;;;;;;0.10;0.10;;;12.70;99.90;;;;;;5011085;28;20226;-70
2023/10/04 02:15:26;;;;;;;0.20;0.20;;;12.70;99.90;;;;;;5008565;28;20060;-70
2023/10/04 02:17:58;;;;;;;0.10;0.10;;;12.70;99.90;;;;;;5007888;28;20405;-70
2023/10/04 02:20:28;;;;;;;0.20;0.20;;;12.70;99.90;;;;;;5029081;28;20053;-70
2023/10/04 02:23:01;;;;;;;0.10;0.10;;;12.60;99.90;;;;;;5028022;28;20041;-70
2023/10/04 02:25:28;;;;;;;0.10;0.10;;;12.60;99.90;;;;;;5027549;28;20120;-70
2023/10/04 02:27:59;;;;;;;0.10;0.10;;;12.70;99.90;;;;;;5027544;28;20068;-70
2023/10/04 02:30:26;;;;;;;0.10;0.10;;;12.60;99.90;;;;;;5009400;28;20608;-70
2023/10/04 02:32:56;;;;;;;0.10;0.10;;;12.60;99.90;;;;;;5004642;28;20370;-71
2023/10/04 02:35:34;;;;;;;0.10;0.10;;;12.60;99.90;;;;;;5012050;28;20060;-70
2023/10/04 02:38:00;;;;;;;0.10;0.10;;;12.60;99.90;;;;;;5009019;28;20053;-70
2023/10/04 02:40:27;;;;;;;0.17;0.17;;;12.60;99.90;;;;;;5012634;28;20060;-70
2023/10/04 02:42:58;;;;;;;0.10;0.10;;;12.60;99.90;;;;;;5011811;28;20045;-70
2023/10/04 02:45:25;;;;;;;0.20;0.20;;;12.60;99.90;;;;;;5012939;28;20046;-70
2023/10/04 02:47:53;;;;;;;0.10;0.10;;;12.60;99.90;;;;;;5005762;28;20038;-70
2023/10/04 02:50:20;;;;;;;0.10;0.10;;;12.60;99.90;;;;;;5010496;28;20041;-70
2023/10/04 02:52:50;;;;;;;0.10;0.10;;;12.60;99.90;;;;;;5009420;28;20087;-70
2023/10/04 02:55:19;;;;;;;0.20;0.20;;;12.60;99.90;;;;;;5006112;28;20144;-70
2023/10/04 02:57:51;;;;;;;0.10;0.10;;;12.60;99.90;;;;;;5029215;28;20661;-70
2023/10/04 03:00:19;;;;;;;0.10;0.10;;;12.60;99.90;;;;;;5007910;28;20030;-70
2023/10/04 03:02:47;;;;;;;0.10;0.10;;;12.60;99.90;;;;;;5008872;28;20045;-70
2023/10/04 03:05:15;;;;;;;0.10;0.10;;;12.60;99.90;;;;;;5011958;28;20443;-70
2023/10/04 03:07:41;;;;;;;0.10;0.10;;;12.60;99.90;;;;;;5008464;28;20396;-70
2023/10/04 03:10:08;;;;;;;0.17;0.17;;;12.70;99.90;;;;;;5029762;28;20465;-70
2023/10/04 03:12:33;;;;;;;0.10;0.10;;;12.60;99.90;;;;;;5009314;28;20056;-70
2023/10/04 03:14:59;;;;;;;0.10;0.10;;;12.70;99.90;;;;;;5010041;28;20041;-70
2023/10/04 03:17:25;;;;;;;0.13;0.13;;;12.70;99.90;;;;;;5010237;28;20041;-70
2023/10/04 03:19:51;;;;;;;0.10;0.10;;;12.70;99.90;;;;;;5029624;28;20049;-71
2023/10/04 03:22:22;;;;;;;0.10;0.10;;;12.70;99.90;;;;;;5008889;28;20163;-70
2023/10/04 03:24:49;;;;;;;0.20;0.20;;;12.70;99.90;;;;;;5007851;28;20038;-70
2023/10/04 03:27:15;;;;;;;0.20;0.20;;;12.70;99.90;;;;;;5027985;28;20072;-70
2023/10/04 03:29:41;;;;;;;0.10;0.10;;;12.70;99.90;;;;;;5025561;28;20175;-70
2023/10/04 03:32:06;;;;;;;0.13;0.13;;;12.70;99.90;;;;;;5008807;28;20129;-70
2023/10/04 03:34:32;;;;;;;0.10;0.10;;;12.70;99.90;;;;;;5010218;28;20042;-70
2023/10/04 03:37:08;;;;;;;0.13;0.13;;;12.70;99.90;;;;;;5010988;28;20049;-70
2023/10/04 03:39:35;;;;;;;0.10;0.10;;;12.70;99.90;;;;;;5012985;28;20175;-71
2023/10/04 03:42:01;;;;;;;0.10;0.10;;;12.70;99.90;;;;;;5028698;28;20387;-70
2023/10/04 03:44:27;;;;;;;0.10;0.10;;;12.70;99.90;;;;;;5012890;28;20060;-70
2023/10/04 03:46:57;;;;;;;0.10;0.10;;;12.70;99.90;;;;;;5011025;28;20493;-70
2023/10/04 03:49:24;;;;;;;0.20;0.20;;;12.60;99.90;;;;;;5027708;28;20497;-70
2023/10/04 03:51:50;;;;;;;0.20;0.20;;;12.70;99.90;;;;;;5011407;28;20084;-70
2023/10/04 03:54:15;;;;;;;0.10;0.10;;;12.60;99.90;;;;;;5010054;28;20049;-70
2023/10/04 03:56:41;;;;;;;0.10;0.10;;;12.70;99.90;;;;;;5011677;28;20050;-71
2023/10/04 03:59:08;;;;;;;0.10;0.10;;;12.70;99.90;;;;;;5011217;28;20068;-70
2023/10/04 04:01:34;;;;;;;0.10;0.10;;;12.60;99.90;;;;;;5010679;28;20136;-70
2023/10/04 04:04:03;;;;;;;0.15;0.15;;;12.60;99.90;;;;;;5025993;28;20198;-70
2023/10/04 04:06:30;;;;;;;0.10;0.10;;;12.60;99.90;;;;;;5011616;28;20049;-70
2023/10/04 04:08:58;;;;;;;0.20;0.20;;;12.60;99.90;;;;;;5012173;28;20124;-70
2023/10/04 04:11:24;;;;;;;0.10;0.10;;;12.60;99.90;;;;;;5011339;28;20053;-70
2023/10/04 04:13:49;;;;;;;0.10;0.10;;;12.60;99.90;;;;;;5007743;28;20182;-70
2023/10/04 04:16:17;;;;;;;0.10;0.10;;;12.60;99.90;;;;;;5028201;28;20563;-70
2023/10/04 04:18:44;;;;;;;0.20;0.20;;;12.60;99.90;;;;;;5026073;28;20037;-70
2023/10/04 04:21:10;;;;;;;0.10;0.10;;;12.60;99.90;;;;;;5029604;28;20128;-70
2023/10/04 04:23:36;;;;;;;0.10;0.10;;;12.60;99.90;;;;;;5008619;28;20195;-70
2023/10/04 04:26:05;;;;;;;0.10;0.10;;;12.60;99.90;;;;;;5010407;28;20045;-70
2023/10/04 04:28:35;;;;;;;0.15;0.15;;;12.60;99.90;;;;;;5009690;28;20120;-70
2023/10/04 04:31:02;;;;;;;0.20;0.20;;;12.60;99.90;;;;;;5010123;28;20049;-70
2023/10/04 04:33:29;;;;;;;0.65;0.32;;;12.50;99.90;;;;;;5005065;28;20042;-70
2023/10/04 04:36:01;;;;;;;0.10;0.10;;;12.60;99.90;;;;;;5010544;28;20116;-70
2023/10/04 04:38:28;;;;;;;0.20;0.20;;;12.50;99.90;;;;;;5009794;28;20124;-70
2023/10/04 04:40:57;;;;;;;0.10;0.10;;;12.50;99.90;;;;;;5010344;28;20080;-70
2023/10/04 04:43:35;;;;;;;0.20;0.20;;;12.50;99.90;;;;;;5009050;28;20127;-70
2023/10/04 04:46:02;;;;;;;0.10;0.10;;;12.50;99.90;;;;;;5011379;28;20128;-70
2023/10/04 04:48:31;;;;;;;0.10;0.10;;;12.50;99.90;;;;;;5008254;28;20389;-70
2023/10/04 04:50:58;;;;;;;0.10;0.10;;;12.60;99.90;;;;;;5029454;28;20640;-70
2023/10/04 04:53:27;;;;;;;0.10;0.10;;;12.50;99.90;;;;;;5004864;28;20056;-70
2023/10/04 04:55:53;;;;;;;0.10;0.10;;;12.60;99.90;;;;;;5010743;28;20076;-70
2023/10/04 04:58:23;;;;;;;0.10;0.10;;;12.50;99.90;;;;;;5011619;28;20839;-70
2023/10/04 05:00:50;;;;;;;0.10;0.10;;;12.60;99.90;;;;;;5004745;28;20053;-70
2023/10/04 05:03:17;;;;;;;0.13;0.13;;;12.50;99.90;;;;;;5006185;28;20046;-70
2023/10/04 05:05:42;;;;;;;0.10;0.10;;;12.60;99.90;;;;;;5008120;28;20075;-70
2023/10/04 05:08:08;;;;;;;0.10;0.10;;;12.60;99.90;;;;;;5009619;28;20132;-70
2023/10/04 05:10:38;;;;;;;0.10;0.10;;;12.60;99.90;;;;;;5002125;28;20054;-70
2023/10/04 05:13:07;;;;;;;0.10;0.10;;;12.60;99.90;;;;;;5020387;28;20053;-70
2023/10/04 05:15:35;;;;;;;0.20;0.20;;;12.60;99.90;;;;;;5017835;28;20109;-70
2023/10/04 05:18:04;;;;;;;0.10;0.10;;;12.60;99.90;;;;;;5006264;28;20049;-70
2023/10/04 05:20:34;;;;;;;0.10;0.10;;;12.60;99.90;;;;;;5010560;28;20041;-70
2023/10/04 05:23:01;;;;;;;0.13;0.13;;;12.60;99.90;;;;;;5010046;28;20459;-70
2023/10/04 05:25:27;;;;;;;0.10;0.10;;;12.60;99.90;;;;;;5028039;28;20402;-70
2023/10/04 05:28:02;;;;;;;0.20;0.20;;;12.60;99.90;;;;;;5009514;28;20112;-70
2023/10/04 05:30:27;;;;;;;0.10;0.10;;;12.60;99.90;;;;;;5010850;28;20054;-70
2023/10/04 05:32:53;;;;;;;0.10;0.10;;;12.60;99.90;;;;;;5008196;28;20041;-70
2023/10/04 05:35:21;;;;;;;0.10;0.10;;;12.60;99.90;;;;;;5004082;28;20052;-70
2023/10/04 05:37:47;;;;;;;0.10;0.10;;;12.60;99.90;;;;;;5008644;28;20120;-70
2023/10/04 05:40:25;;;;;;;0.10;0.10;;;12.50;99.90;;;;;;5009778;28;20077;-70
2023/10/04 05:42:54;;;;;;;0.10;0.10;;;12.70;99.90;;;;;;5019918;28;20057;-70
2023/10/04 05:45:25;;;;;;;0.20;0.20;;;12.60;99.90;;;;;;5005424;28;20144;-70
2023/10/04 05:47:51;;;;;;;0.10;0.10;;;12.60;99.90;;;;;;5022927;28;20589;-70
2023/10/04 05:50:18;;;;;;;0.10;0.10;;;12.60;99.90;;;;;;5027038;28;20504;-70
2023/10/04 05:52:50;;;;;;;0.17;0.17;;;12.60;99.90;;;;;;5006793;28;20050;-70
2023/10/04 05:55:17;;;;;;;0.10;0.10;;;12.60;99.90;;;;;;5002448;28;20555;-70
2023/10/04 05:57:45;;;;;;;0.10;0.10;;;12.60;99.90;;;;;;5010740;28;20040;-70
2023/10/04 06:00:26;;;;;;;0.10;0.10;;;12.60;99.90;;;;;;5008348;28;20077;-70
2023/10/04 06:02:58;;;;;;;0.17;0.17;;;12.60;99.90;;;;;;4998140;28;20049;-70
2023/10/04 06:05:25;;;;;;;0.10;0.10;;;12.60;99.90;;;;;;5010131;28;20054;-70
2023/10/04 06:08:00;;;;;;;0.10;0.10;;;12.60;99.90;;;;;;5001935;28;20087;-70
2023/10/04 06:10:25;;;;;;;0.10;0.10;;;12.60;99.90;;;;;;4993758;28;20053;-70
2023/10/04 06:12:56;;;;;;;0.10;0.10;;;12.60;99.90;;;;;;5011012;28;20049;-71
2023/10/04 06:15:24;;;;;;;0.10;0.10;;;12.60;99.90;;;;;;5010343;28;20095;-71
2023/10/04 06:17:50;;;;;;;0.10;0.10;;;12.60;99.90;;;;;;5011262;28;20041;-71
2023/10/04 06:20:33;;;;;;;0.20;0.20;;;12.60;99.90;;;;;;5013613;28;20045;-71
2023/10/04 06:23:14;;;;;;;0.20;0.20;;;12.70;99.90;;;;;;5012965;28;20501;-71
2023/10/04 06:25:42;;;;;;;0.10;0.10;;;12.60;99.90;;;;;;5012087;28;20037;-71
2023/10/04 06:28:10;;;;;;;0.10;0.10;;;12.70;99.90;;;;;;5014369;28;20485;-70
2023/10/04 06:30:36;;;;;;;0.10;0.10;;;12.60;99.90;;;;;;5013006;28;20033;-71
2023/10/04 06:33:04;;;;;;;0.15;0.15;;;12.70;99.90;;;;;;5008557;28;20132;-71
2023/10/04 06:35:32;;;;;;;0.17;0.17;;;12.70;99.90;;;;;;5007574;28;20055;-71
2023/10/04 06:38:08;;;;;;;0.10;0.10;;;12.70;99.90;;;;;;5005769;28;20041;-71
2023/10/04 06:40:35;;;;;;;0.10;0.10;;;12.70;99.90;;;;;;5008064;28;20064;-71
2023/10/04 06:43:05;;;;;;;0.10;0.10;;;12.80;99.90;;;;;;5006138;28;20058;-71
2023/10/04 06:45:32;;;;;;;0.10;0.10;;;12.70;99.90;;;;;;5002220;28;20050;-71
2023/10/04 06:47:59;;;;;;;0.10;0.10;;;12.80;99.90;;;;;;5005989;28;20037;-71
2023/10/04 06:50:32;;;;;;;0.10;0.10;;;12.80;99.90;;;;;;5005189;28;20110;-71
2023/10/04 06:53:01;;;;;;;0.10;0.10;;;12.80;99.90;;;;;;5008690;28;20064;-71
2023/10/04 06:55:27;;;;;;;0.10;0.10;;;12.90;99.90;;;;;;5008041;28;20053;-71
2023/10/04 06:57:56;;;;;;;0.20;0.20;;;12.90;99.90;;;;;;5010231;28;20455;-71
2023/10/04 07:00:26;;;;;;;0.10;0.10;;;12.90;99.90;;;;;;5002320;28;20102;-71
2023/10/04 07:02:59;;;;;;;0.20;0.20;;;13.00;99.90;;;;;;5003125;28;20056;-72
2023/10/04 07:05:32;;;;;;;0.10;0.10;;;13.00;99.90;;;;;;5011770;28;20041;-71
2023/10/04 07:07:58;;;;;;;0.10;0.10;;;13.00;99.90;;;;;;5014179;28;20049;-71
2023/10/04 07:10:34;;;;;;;0.20;0.20;;;13.10;99.90;;;;;;5028914;28;20088;-71
2023/10/04 07:13:02;;;;;;;0.10;0.10;;;13.10;99.90;;;;;;5012983;28;20053;-71
2023/10/04 07:15:30;;;;;;;0.20;0.20;;;13.10;99.90;;;;;;5011759;28;20045;-71
2023/10/04 07:17:56;;;;;;;0.10;0.10;;;13.20;99.90;;;;;;5008623;28;20072;-72
2023/10/04 07:20:24;;;;;;;0.10;0.10;;;13.30;99.90;;;;;;5012634;28;20041;-71
2023/10/04 07:22:58;;;;;;;0.10;0.10;;;13.30;99.90;;;;;;5007904;28;20054;-71
2023/10/04 07:25:27;;;;;;;0.20;0.20;;;13.30;99.90;;;;;;5010848;28;20045;-71
2023/10/04 07:27:58;;;;;;;0.10;0.10;;;13.40;99.90;;;;;;5005992;28;20120;-71
2023/10/04 07:30:25;;;;;;;0.20;0.20;;;13.40;99.90;;;;;;5013823;28;20057;-71
2023/10/04 07:32:54;;;;;;;0.10;0.10;;;13.50;99.90;;;;;;5011231;28;20029;-71
2023/10/04 07:35:30;;;;;;;0.10;0.10;;;13.50;99.90;;;;;;5004535;28;20400;-71
2023/10/04 07:37:58;;;;;;;0.10;0.10;;;13.60;99.90;;;;;;4995603;28;20049;-71
2023/10/04 07:40:26;;;;;;;0.10;0.10;;;13.70;99.90;;;;;;4993162;28;20053;-71
2023/10/04 07:42:53;;;;;;;0.10;0.10;;;13.70;99.90;;;;;;5007698;28;20049;-73
2023/10/04 07:45:23;;;;;;;0.20;0.20;;;13.70;99.90;;;;;;5007486;28;20489;-71
2023/10/04 07:47:50;;;;;;;0.10;0.10;;;13.80;99.90;;;;;;5011963;28;20045;-71
2023/10/04 07:50:22;;;;;;;0.10;0.10;;;13.90;99.90;;;;;;5008348;28;20055;-72
2023/10/04 07:52:50;;;;;;;0.20;0.20;;;13.90;99.90;;;;;;5007016;28;20129;-71
2023/10/04 07:55:19;;;;;;;0.10;0.10;;;14.00;99.90;;;;;;4998613;28;20064;-71
2023/10/04 07:57:49;;;;;;;0.13;0.13;;;14.10;99.90;;;;;;5010317;28;20037;-71
2023/10/04 08:00:16;;;;;;;0.10;0.10;;;14.20;99.90;;;;;;5008448;28;20060;-71
2023/10/04 08:02:49;;;;;;;0.10;0.10;;;14.20;99.90;;;;;;5010105;28;20088;-71
2023/10/04 08:05:31;;;;;;;0.10;0.10;;;14.20;99.90;;;;;;5008806;28;20048;-71
2023/10/04 08:08:00;;;;;;;;;;;14.40;99.90;;;;;;5008360;28;20164;-71
2023/10/04 08:10:29;;;;;;;0.10;0.10;;;14.40;99.90;;;;;;5012436;28;19928;-71
2023/10/04 08:13:00;;;;;;;0.20;0.20;;;14.50;99.90;;;;;;5010242;28;20400;-71
2023/10/04 08:15:30;;;;;;;0.10;0.10;;;14.50;99.90;;;;;;5009068;28;20045;-71
2023/10/04 08:17:58;;;;;;;0.20;0.20;;;14.60;99.90;;;;;;5009918;28;20041;-71
2023/10/04 08:20:28;;;;;;;0.10;0.10;;;14.70;99.90;;;;;;5012321;28;20156;-71
2023/10/04 08:22:54;;;;;;;0.20;0.20;;;14.80;99.90;;;;;;5011571;28;20127;-71
2023/10/04 08:25:20;;;;;;;0.10;0.10;;;14.80;99.90;;;;;;5010856;28;20072;-71
2023/10/04 08:27:46;;;;;;;0.15;0.15;;;14.80;99.90;;;;;;5012204;28;20045;-71
2023/10/04 08:30:14;;;;;;;0.10;0.10;;;14.90;99.90;;;;;;5009577;28;20139;-71
2023/10/04 08:32:41;;;;;;;0.10;0.10;;;14.90;99.90;;;;;;5011110;28;20095;-71
2023/10/04 08:35:32;;;;;;;0.20;0.20;;;14.90;99.90;;;;;;5010579;28;20071;-71
2023/10/04 08:37:59;;;;;;;;;;;15.00;99.90;;;;;;5005161;28;20044;-71
2023/10/04 08:40:27;;;;;;;0.10;0.10;;;15.00;99.90;;;;;;5024065;28;19928;-71
2023/10/04 08:42:55;;;;;;;0.10;0.10;;;15.00;99.90;;;;;;5001517;28;20049;-71
2023/10/04 08:45:22;;;;;;;0.20;0.20;;;15.10;99.90;;;;;;5001752;28;20128;-71
2023/10/04 08:47:55;;;;;;;0.10;0.10;;;15.20;99.90;;;;;;5002813;28;20037;-71
2023/10/04 08:50:35;;;;;;;0.10;0.10;;;15.20;99.90;;;;;;5003630;28;20378;-70
2023/10/04 08:53:10;;;;;;;0.10;0.10;;;15.30;99.90;;;;;;5002293;28;20090;-71
2023/10/04 08:55:43;;;;;;;0.10;0.10;;;15.30;99.90;;;;;;5020462;28;20350;-71
2023/10/04 08:58:10;;;;;;;0.10;0.10;;;15.40;99.90;;;;;;4998759;28;20053;-71
2023/10/04 09:00:43;;;;;;;0.10;0.10;;;15.50;99.90;;;;;;5007974;28;20112;-71
2023/10/04 09:03:10;;;;;;;0.10;0.10;;;15.50;99.90;;;;;;5008865;28;20044;-71
2023/10/04 09:05:36;;;;;;;0.10;0.10;;;15.60;99.90;;;;;;5002027;28;20033;-71
2023/10/04 09:08:04;;;;;;;0.20;0.20;;;15.70;99.90;;;;;;5002969;28;20104;-71
2023/10/04 09:10:32;;;;;;;0.10;0.10;;;15.70;99.90;;;;;;5003519;28;20132;-71
2023/10/04 09:12:59;;;;;;;0.20;0.20;;;15.70;99.90;;;;;;5001487;28;20048;-71
2023/10/04 09:15:24;;;;;;;0.10;0.10;;;15.80;99.90;;;;;;5002874;28;20076;-71
2023/10/04 09:17:57;;;;;;;0.10;0.10;;;15.80;99.90;;;;;;5002112;28;20131;-71
2023/10/04 09:20:31;;;;;;;0.10;0.10;;;15.90;99.90;;;;;;5002124;28;20449;-70
2023/10/04 09:23:00;;;;;;;0.10;0.10;;;16.00;99.90;;;;;;5001765;28;20102;-71
2023/10/04 09:25:39;;;;;;;0.10;0.10;;;16.00;99.90;;;;;;5003147;28;20049;-71
2023/10/04 09:28:10;;;;;;;0.20;0.20;;;16.00;99.90;;;;;;5000830;28;20042;-71
2023/10/04 09:30:36;;;;;;;0.10;0.10;;;16.10;99.90;;;;;;5003061;28;20045;-70
2023/10/04 09:33:21;;;;;;;0.17;0.17;;;16.20;99.90;;;;;;5019484;28;20060;-71
2023/10/04 09:35:47;;;;;;;0.15;0.15;;;16.20;99.90;;;;;;5003106;28;20057;-71
2023/10/04 09:38:21;;;;;;;0.10;0.10;;;16.30;99.90;;;;;;4999532;28;20046;-70
2023/10/04 09:40:57;;;;;;;0.10;0.10;;;16.40;99.90;;;;;;5001246;28;20044;-71
2023/10/04 09:43:36;;;;;;;0.20;0.20;;;16.40;99.90;;;;;;5003334;28;20038;-71
2023/10/04 09:46:12;;;;;;;0.10;0.10;;;16.50;99.90;;;;;;5010030;28;20064;-71
2023/10/04 09:48:41;;;;;;;0.10;0.10;;;16.60;99.90;;;;;;5038865;28;20037;-71
2023/10/04 09:51:09;;;;;;;0.40;0.40;;;16.60;99.90;;;;;;5032317;28;20120;-71
2023/10/04 09:53:39;;;;;;;0.10;0.10;;;16.60;99.90;;;;;;5014596;28;20065;-71
2023/10/04 09:56:07;;;;;;;0.10;0.10;;;16.60;99.90;;;;;;5007457;28;20076;-71
2023/10/04 09:58:33;;;;;;;0.10;0.10;;;16.60;99.90;;;;;;5010178;28;20041;-71
2023/10/04 10:01:08;;;;;;;0.20;0.20;;;16.60;99.90;;;;;;5012209;28;20037;-71
2023/10/04 10:03:49;;;;;;;0.20;0.20;;;16.60;99.90;;;;;;5008769;28;20055;-71
2023/10/04 10:06:21;;;;;;;0.10;0.10;;;16.60;99.90;;;;;;5014483;28;20045;-71
2023/10/04 10:08:52;;;;;;;0.10;0.10;;;16.70;99.90;;;;;;5027367;28;20475;-72
2023/10/04 10:11:18;;;;;;;0.20;0.20;;;16.80;99.90;;;;;;5030383;28;20053;-71
2023/10/04 10:13:45;;;;;;;0.10;0.10;;;17.00;99.90;;;;;;5031808;28;20674;-71
2023/10/04 10:16:12;;;;;;;0.10;0.10;;;17.00;99.90;;;;;;5008550;28;20141;-71
2023/10/04 10:18:39;;;;;;;0.10;0.10;;;17.10;99.90;;;;;;5023522;28;20064;-71
2023/10/04 10:21:08;;;;;;;0.15;0.15;;;17.20;99.90;;;;;;5010438;28;20055;-70
2023/10/04 10:23:56;;;;;;;0.20;0.20;;;17.20;99.90;;;;;;5012649;28;20060;-71
2023/10/04 10:26:22;;;;;;;0.20;0.20;;;17.20;99.90;;;;;;5012811;28;20124;-70
2023/10/04 10:28:59;;;;;;;0.10;0.10;;;17.20;99.90;;;;;;5007689;28;20049;-71
2023/10/04 10:31:26;;;;;;;0.20;0.20;;;17.20;99.90;;;;;;5018842;28;20496;-70
2023/10/04 10:33:55;;;;;;;0.20;0.20;;;17.20;99.90;;;;;;5022711;28;20052;-71
2023/10/04 10:36:26;;;;;;;0.20;0.20;;;17.20;99.90;;;;;;5021687;28;20183;-70
2023/10/04 10:38:54;;;;;;;0.20;0.20;;;17.20;99.90;;;;;;5021588;28;20053;-71
2023/10/04 10:41:29;;;;;;;0.20;0.20;;;17.10;99.90;;;;;;5004910;28;20045;-71
2023/10/04 10:44:13;;;;;;;0.20;0.20;;;17.10;99.90;;;;;;5004173;28;20045;-70
2023/10/04 10:47:07;;;;;;;0.20;0.20;;;17.10;99.90;;;;;;5013083;28;20061;-71
2023/10/04 10:49:58;;;;;;;0.20;0.20;;;17.10;99.90;;;;;;5005107;28;20175;-71
2023/10/04 10:52:44;;;;;;;0.20;0.20;;;17.10;99.90;;;;;;5007899;28;20123;-71
2023/10/04 10:55:16;;;;;;;0.20;0.20;;;17.00;99.90;;;;;;5010700;28;20054;-70
2023/10/04 10:57:44;;;;;;;0.20;0.20;;;17.00;99.90;;;;;;5007368;28;20065;-71
2023/10/04 11:00:18;;;;;;;0.10;0.10;;;17.00;99.90;;;;;;5005440;28;20481;-71
2023/10/04 11:02:48;;;;;;;0.20;0.20;;;17.00;99.90;;;;;;5009010;28;20042;-71
2023/10/04 11:05:16;;;;;;;0.20;0.20;;;16.90;99.90;;;;;;5000474;28;20396;-71
2023/10/04 11:07:45;;;;;;;0.20;0.20;;;16.90;99.90;;;;;;5005322;28;20054;-71
2023/10/04 11:10:19;;;;;;;0.20;0.20;;;16.90;99.90;;;;;;5003792;28;20038;-70
2023/10/04 11:12:47;;;;;;;0.10;0.10;;;16.80;99.90;;;;;;5005072;28;20052;-71
2023/10/04 11:15:17;;;;;;;0.13;0.13;;;16.80;99.90;;;;;;5013661;28;20045;-70
2023/10/04 11:17:43;;;;;;;0.20;0.20;;;16.80;99.90;;;;;;5033769;28;20553;-71
2023/10/04 11:20:17;;;;;;;0.20;0.20;;;16.80;99.90;;;;;;5033261;28;20044;-69
2023/10/04 11:22:44;;;;;;;0.20;0.20;;;16.80;99.90;;;;;;5023586;28;20049;-69
2023/10/04 11:25:11;;;;;;;0.15;0.15;;;16.90;99.90;;;;;;5014085;28;20053;-70
2023/10/04 11:27:40;;;;;;;0.10;0.10;;;16.90;99.90;;;;;;5012747;28;20049;-69
2023/10/04 11:30:11;;;;;;;0.20;0.20;;;16.90;99.90;;;;;;5013178;28;20084;-69
2023/10/04 11:32:47;;;;;;;0.20;0.20;;;16.90;99.90;;;;;;5033291;28;20550;-70
2023/10/04 11:35:15;;;;;;;0.20;0.20;;;16.90;99.90;;;;;;5018838;28;20041;-69
2023/10/04 11:37:50;;;;;;;0.20;0.20;;;16.90;99.90;;;;;;5015494;28;20133;-70
2023/10/04 11:40:22;;;;;;;0.10;0.10;;;16.90;99.90;;;;;;5009476;28;20045;-70
2023/10/04 11:43:01;;;;;;;0.20;0.20;;;17.00;99.90;;;;;;5012519;28;20044;-69
2023/10/04 11:45:27;;;;;;;0.10;0.10;;;17.00;99.90;;;;;;5008439;28;20535;-70
2023/10/04 11:48:00;;;;;;;0.20;0.20;;;17.10;99.90;;;;;;5012300;28;20049;-70
2023/10/04 11:50:41;;;;;;;0.20;0.20;;;17.10;99.90;;;;;;5013826;28;20064;-70
2023/10/04 11:53:06;;;;;;;0.20;0.20;;;17.10;99.90;;;;;;5012548;28;20516;-70
2023/10/04 11:55:36;;;;;;;0.20;0.20;;;17.10;99.90;;;;;;5012480;28;20045;-70
2023/10/04 11:58:06;;;;;;;0.20;0.20;;;17.10;99.90;;;;;;5029945;28;20095;-70
2023/10/04 12:00:32;;;;;;;0.20;0.20;;;17.20;99.90;;;;;;5012836;28;20055;-70
2023/10/04 12:02:59;;;;;;;0.10;0.10;;;17.20;99.90;;;;;;5011976;28;20049;-70
2023/10/04 12:05:25;;;;;;;0.20;0.20;;;17.20;99.90;;;;;;5013229;28;20051;-70
2023/10/04 12:07:51;;;;;;;0.20;0.20;;;17.20;99.90;;;;;;5009470;28;20112;-70
2023/10/04 12:10:18;;;;;;;0.20;0.20;;;17.30;99.90;;;;;;5013487;28;20088;-69
2023/10/04 12:12:44;;;;;;;0.10;0.10;;;17.30;99.90;;;;;;5011685;28;20496;-70
2023/10/04 12:15:10;;;;;;;0.20;0.20;;;17.40;99.90;;;;;;5029175;28;20100;-70
2023/10/04 12:17:36;;;;;;;0.20;0.20;;;17.40;99.90;;;;;;5012453;28;20045;-69
2023/10/04 12:20:07;;;;;;;0.20;0.20;;;17.50;99.90;;;;;;5012730;28;20049;-70
2023/10/04 12:22:32;;;;;;;0.20;0.20;;;17.50;99.90;;;;;;4994863;28;20045;-69
2023/10/04 12:25:01;;;;;;;0.20;0.20;;;17.50;99.90;;;;;;5012944;28;20195;-69
2023/10/04 12:27:27;;;;;;;0.20;0.20;;;17.60;99.90;;;;;;5012438;28;20401;-69
2023/10/04 12:29:53;;;;;;;0.10;0.10;;;17.60;99.90;;;;;;5028868;28;20106;-70
2023/10/04 12:32:19;;;;;;;0.10;0.10;;;17.60;99.90;;;;;;5030236;28;20049;-70
2023/10/04 12:34:45;;;;;;;0.15;0.15;;;17.70;99.90;;;;;;5012035;28;20060;-70
2023/10/04 12:37:12;;;;;;;0.20;0.20;;;17.80;99.90;;;;;;5019335;28;20444;-70
2023/10/04 12:39:38;;;;;;;0.20;0.20;;;17.90;99.90;;;;;;5030605;28;20049;-70
2023/10/04 12:42:04;;;;;;;0.20;0.20;;;18.00;99.90;;;;;;5002062;28;20056;-70
2023/10/04 12:44:30;;;;;;;0.20;0.20;;;18.10;99.90;;;;;;5010222;28;20041;-69
2023/10/04 12:46:57;;;;;;;0.20;0.20;;;18.20;99.90;;;;;;5010282;28;20052;-70
2023/10/04 12:49:23;;;;;;;0.20;0.20;;;18.20;99.90;;;;;;5029761;28;20041;-70
2023/10/04 12:51:49;;;;;;;0.20;0.20;;;18.40;99.90;;;;;;5010763;28;20135;-70
2023/10/04 12:54:16;;;;;;;0.20;0.20;;;18.60;99.90;;;;;;5011561;28;20183;-70
2023/10/04 12:56:42;;;;;;;0.20;0.20;;;18.80;99.90;;;;;;5011379;28;20433;-70
2023/10/04 12:59:10;;;;;;;0.20;0.20;;;19.10;99.90;;;;;;5027867;28;20045;-70